Portada
METAR-TAF:

METAR-TAF

Aeroports :

Àqaba, Jordània

latitud: 29-38N, longitud: 035-01E, altitud: 53 m

Observació

L'informe es va fer fa 1 hora i 7 minuts, a les 20:00 UTC
Vent 14 kt del Nord
Temperatura 34°C
Humitat 32%
Pressió 1005 hPa
Visibilitat 10 km o més
sense núvols per sota de 1500 mi sense presència de cumulonimbus.

METAR: OJAQ 102000Z 35014KT CAVOK 34/15 Q1005 NOSIG

Hora: 00:07 (21:07 UTC)

Pronòstic

L'informe es va fer fa 4 hores i 42 minuts, a les 16:25 UTC
Pronòstic vàlid del 10 a les 18 UTC al 11 a les 24 UTC
Vent 14 kt del Nord
Visibilitat: 7000 m

TAF: OJAQ 101625Z 1018/1124 36014KT 7000 NSC

Observacions i pronòstics meteorològics de més de 4000 aeroports (METAR i TAF).

Les estacions disponibles són els punts grocs i vermells al mapa.

Posi el ratolí al punt desitjat per veure el nom de l'estació.

Feu clic per veure les observacions i els pronòstics meteorològics.

Per canviar el mapa: feu clic els botons verds amb una creu de color negre per apropar; al botó verd amb un guió per allunyar la imatge; o en les fletxes verdes per a mapes adjacents.


METAR-TAF: